sensor_id;sensor_type;location;lat;lon;timestamp;pressure;altitude;pressure_sealevel;temperature;humidity
31681;BME280;18281;51.364;9.566;2022-12-07T00:02:15;99950.63;;;-0.63;100.00
31681;BME280;18281;51.364;9.566;2022-12-07T00:04:40;99949.75;;;-0.64;100.00
31681;BME280;18281;51.364;9.566;2022-12-07T00:07:06;99954.97;;;-0.67;100.00
31681;BME280;18281;51.364;9.566;2022-12-07T00:09:31;99949.75;;;-0.64;100.00
31681;BME280;18281;51.364;9.566;2022-12-07T00:11:56;99947.22;;;-0.67;100.00
31681;BME280;18281;51.364;9.566;2022-12-07T00:14:22;99941.09;;;-0.55;100.00
31681;BME280;18281;51.364;9.566;2022-12-07T00:16:49;99932.47;;;-0.52;100.00
31681;BME280;18281;51.364;9.566;2022-12-07T00:19:15;99940.25;;;-0.55;100.00
31681;BME280;18281;51.364;9.566;2022-12-07T00:21:40;99930.69;;;-0.47;100.00
31681;BME280;18281;51.364;9.566;2022-12-07T00:24:06;99932.41;;;-0.44;100.00
31681;BME280;18281;51.364;9.566;2022-12-07T00:26:34;99923.94;;;-0.57;100.00
31681;BME280;18281;51.364;9.566;2022-12-07T00:29:05;99925.69;;;-0.63;100.00
31681;BME280;18281;51.364;9.566;2022-12-07T00:31:35;99916.25;;;-0.62;100.00
31681;BME280;18281;51.364;9.566;2022-12-07T00:34:07;99924.88;;;-0.65;100.00
31681;BME280;18281;51.364;9.566;2022-12-07T00:36:36;99919.69;;;-0.61;100.00
31681;BME280;18281;51.364;9.566;2022-12-07T00:39:02;99920.59;;;-0.67;100.00
31681;BME280;18281;51.364;9.566;2022-12-07T00:41:28;99910.28;;;-0.66;100.00
31681;BME280;18281;51.364;9.566;2022-12-07T00:43:54;99911.94;;;-0.61;100.00
31681;BME280;18281;51.364;9.566;2022-12-07T00:46:20;99906.00;;;-0.68;100.00
31681;BME280;18281;51.364;9.566;2022-12-07T00:48:47;99902.56;;;-0.70;100.00
31681;BME280;18281;51.364;9.566;2022-12-07T00:51:14;99896.50;;;-0.66;100.00
31681;BME280;18281;51.364;9.566;2022-12-07T00:53:39;99897.31;;;-0.61;100.00
31681;BME280;18281;51.364;9.566;2022-12-07T00:56:11;99889.56;;;-0.58;100.00
31681;BME280;18281;51.364;9.566;2022-12-07T00:58:37;99881.75;;;-0.53;100.00
31681;BME280;18281;51.364;9.566;2022-12-07T01:01:05;99891.28;;;-0.60;100.00
31681;BME280;18281;51.364;9.566;2022-12-07T01:03:30;99884.41;;;-0.61;100.00
31681;BME280;18281;51.364;9.566;2022-12-07T01:05:56;99874.81;;;-0.47;100.00
31681;BME280;18281;51.364;9.566;2022-12-07T01:08:23;99880.06;;;-0.56;100.00
31681;BME280;18281;51.364;9.566;2022-12-07T01:10:49;99874.91;;;-0.56;100.00
31681;BME280;18281;51.364;9.566;2022-12-07T01:13:15;99880.94;;;-0.57;100.00
31681;BME280;18281;51.364;9.566;2022-12-07T01:15:42;99874.06;;;-0.56;100.00
31681;BME280;18281;51.364;9.566;2022-12-07T01:18:08;99869.72;;;-0.51;100.00
31681;BME280;18281;51.364;9.566;2022-12-07T01:20:34;99867.16;;;-0.56;100.00
31681;BME280;18281;51.364;9.566;2022-12-07T01:22:59;99868.94;;;-0.61;100.00
31681;BME280;18281;51.364;9.566;2022-12-07T01:25:24;99870.56;;;-0.52;100.00
31681;BME280;18281;51.364;9.566;2022-12-07T01:27:50;99868.72;;;-0.42;100.00
31681;BME280;18281;51.364;9.566;2022-12-07T01:30:15;99872.22;;;-0.47;100.00
31681;BME280;18281;51.364;9.566;2022-12-07T01:32:41;99867.03;;;-0.42;100.00
31681;BME280;18281;51.364;9.566;2022-12-07T01:35:06;99868.78;;;-0.45;100.00
31681;BME280;18281;51.364;9.566;2022-12-07T01:37:36;99880.81;;;-0.48;100.00
31681;BME280;18281;51.364;9.566;2022-12-07T01:40:04;99875.66;;;-0.48;100.00
31681;BME280;18281;51.364;9.566;2022-12-07T01:42:29;99873.13;;;-0.49;100.00
31681;BME280;18281;51.364;9.566;2022-12-07T01:47:58;99880.69;;;-0.35;100.00
31681;BME280;18281;51.364;9.566;2022-12-07T01:50:26;99870.38;;;-0.35;100.00
31681;BME280;18281;51.364;9.566;2022-12-07T01:52:54;99871.34;;;-0.45;100.00
31681;BME280;18281;51.364;9.566;2022-12-07T01:55:22;99867.97;;;-0.49;100.00
31681;BME280;18281;51.364;9.566;2022-12-07T01:57:50;99879.13;;;-0.47;100.00
31681;BME280;18281;51.364;9.566;2022-12-07T02:00:17;99864.34;;;-0.36;100.00
31681;BME280;18281;51.364;9.566;2022-12-07T02:05:28;99865.34;;;-0.48;100.00
31681;BME280;18281;51.364;9.566;2022-12-07T02:07:55;99859.28;;;-0.42;100.00
31681;BME280;18281;51.364;9.566;2022-12-07T02:10:29;99868.66;;;-0.36;100.00
31681;BME280;18281;51.364;9.566;2022-12-07T02:13:02;99861.84;;;-0.43;100.00
31681;BME280;18281;51.364;9.566;2022-12-07T02:15:37;99855.84;;;-0.42;100.00
31681;BME280;18281;51.364;9.566;2022-12-07T02:29:07;99849.88;;;-0.44;100.00
31681;BME280;18281;51.364;9.566;2022-12-07T02:31:36;99853.22;;;-0.41;100.00
31681;BME280;18281;51.364;9.566;2022-12-07T02:34:09;99844.69;;;-0.44;100.00
31681;BME280;18281;51.364;9.566;2022-12-07T02:36:46;99843.84;;;-0.45;100.00
31681;BME280;18281;51.364;9.566;2022-12-07T02:39:19;99848.91;;;-0.39;100.00
31681;BME280;18281;51.364;9.566;2022-12-07T02:41:51;99852.41;;;-0.43;100.00
31681;BME280;18281;51.364;9.566;2022-12-07T02:44:20;99844.59;;;-0.35;100.00
31681;BME280;18281;51.364;9.566;2022-12-07T02:46:52;99851.53;;;-0.43;100.00
31681;BME280;18281;51.364;9.566;2022-12-07T02:49:19;99843.03;;;-0.49;100.00
31681;BME280;18281;51.364;9.566;2022-12-07T02:51:46;99844.69;;;-0.44;100.00
31681;BME280;18281;51.364;9.566;2022-12-07T02:54:16;99848.91;;;-0.37;100.00
31681;BME280;18281;51.364;9.566;2022-12-07T02:56:47;99842.88;;;-0.39;100.00
31681;BME280;18281;51.364;9.566;2022-12-07T03:02:36;99845.47;;;-0.38;100.00
31681;BME280;18281;51.364;9.566;2022-12-07T03:08:09;99838.44;;;-0.26;100.00
31681;BME280;18281;51.364;9.566;2022-12-07T03:10:56;99842.00;;;-0.35;100.00
31681;BME280;18281;51.364;9.566;2022-12-07T03:13:30;99834.19;;;-0.31;100.00
31681;BME280;18281;51.364;9.566;2022-12-07T03:18:35;99837.75;;;-0.38;100.00
31681;BME280;18281;51.364;9.566;2022-12-07T03:21:10;99832.56;;;-0.38;100.00
31681;BME280;18281;51.364;9.566;2022-12-07T03:23:39;99830.84;;;-0.37;100.00
31681;BME280;18281;51.364;9.566;2022-12-07T03:26:08;99825.59;;;-0.33;100.00
31681;BME280;18281;51.364;9.566;2022-12-07T03:28:40;99830.69;;;-0.26;100.00
31681;BME280;18281;51.364;9.566;2022-12-07T03:31:21;99831.63;;;-0.31;100.00
31681;BME280;18281;51.364;9.566;2022-12-07T03:34:06;99835.94;;;-0.34;100.00
31681;BME280;18281;51.364;9.566;2022-12-07T03:37:11;99841.09;;;-0.31;100.00
31681;BME280;18281;51.364;9.566;2022-12-07T03:42:32;99835.88;;;-0.28;100.00
31681;BME280;18281;51.364;9.566;2022-12-07T03:45:00;99834.22;;;-0.32;100.00
31681;BME280;18281;51.364;9.566;2022-12-07T03:47:30;99836.75;;;-0.29;100.00
31681;BME280;18281;51.364;9.566;2022-12-07T03:50:06;99826.44;;;-0.31;100.00
31681;BME280;18281;51.364;9.566;2022-12-07T03:52:41;99832.56;;;-0.36;100.00
31681;BME280;18281;51.364;9.566;2022-12-07T03:55:15;99837.63;;;-0.28;100.00
31681;BME280;18281;51.364;9.566;2022-12-07T03:57:43;99832.31;;;-0.19;100.00
31681;BME280;18281;51.364;9.566;2022-12-07T04:00:10;99829.75;;;-0.21;100.00
31681;BME280;18281;51.364;9.566;2022-12-07T04:02:36;99827.28;;;-0.28;100.00
31681;BME280;18281;51.364;9.566;2022-12-07T04:05:02;99829.78;;;-0.22;100.00
31681;BME280;18281;51.364;9.566;2022-12-07T04:07:28;99826.34;;;-0.23;100.00
31681;BME280;18281;51.364;9.566;2022-12-07T04:09:53;99823.78;;;-0.23;100.00
31681;BME280;18281;51.364;9.566;2022-12-07T04:12:20;99828.06;;;-0.23;100.00
31681;BME280;18281;51.364;9.566;2022-12-07T04:14:46;99823.78;;;-0.23;100.00
31681;BME280;18281;51.364;9.566;2022-12-07T04:17:11;99825.50;;;-0.22;100.00
31681;BME280;18281;51.364;9.566;2022-12-07T04:19:37;99823.81;;;-0.24;100.00
31681;BME280;18281;51.364;9.566;2022-12-07T04:22:03;99826.31;;;-0.20;100.00
31681;BME280;18281;51.364;9.566;2022-12-07T04:24:29;99822.03;;;-0.22;100.00
31681;BME280;18281;51.364;9.566;2022-12-07T04:26:55;99815.97;;;-0.20;100.00
31681;BME280;18281;51.364;9.566;2022-12-07T04:29:21;99827.13;;;-0.16;100.00
31681;BME280;18281;51.364;9.566;2022-12-07T04:31:47;99819.41;;;-0.19;100.00
31681;BME280;18281;51.364;9.566;2022-12-07T04:34:13;99813.34;;;-0.17;100.00
31681;BME280;18281;51.364;9.566;2022-12-07T04:36:39;99828.88;;;-0.20;100.00
31681;BME280;18281;51.364;9.566;2022-12-07T04:39:06;99826.31;;;-0.20;100.00
31681;BME280;18281;51.364;9.566;2022-12-07T04:41:32;99829.81;;;-0.24;100.00
31681;BME280;18281;51.364;9.566;2022-12-07T04:44:03;99827.22;;;-0.24;100.00
31681;BME280;18281;51.364;9.566;2022-12-07T04:46:32;99827.19;;;-0.22;100.00
31681;BME280;18281;51.364;9.566;2022-12-07T04:48:58;99830.59;;;-0.19;100.00
31681;BME280;18281;51.364;9.566;2022-12-07T04:51:26;99831.47;;;-0.20;100.00
31681;BME280;18281;51.364;9.566;2022-12-07T04:53:52;99829.78;;;-0.22;100.00
31681;BME280;18281;51.364;9.566;2022-12-07T04:56:19;99830.63;;;-0.20;100.00
31681;BME280;18281;51.364;9.566;2022-12-07T04:58:45;99830.66;;;-0.22;100.00
31681;BME280;18281;51.364;9.566;2022-12-07T05:01:12;99830.59;;;-0.19;100.00
31681;BME280;18281;51.364;9.566;2022-12-07T05:03:38;99829.72;;;-0.19;100.00
31681;BME280;18281;51.364;9.566;2022-12-07T05:06:05;99828.84;;;-0.17;100.00
31681;BME280;18281;51.364;9.566;2022-12-07T05:08:32;99834.84;;;-0.16;100.00
31681;BME280;18281;51.364;9.566;2022-12-07T05:10:58;99829.66;;;-0.13;100.00
31681;BME280;18281;51.364;9.566;2022-12-07T05:13:24;99832.31;;;-0.18;100.00
31681;BME280;18281;51.364;9.566;2022-12-07T05:15:49;99839.19;;;-0.18;100.00
31681;BME280;18281;51.364;9.566;2022-12-07T05:18:15;99835.75;;;-0.19;100.00
31681;BME280;18281;51.364;9.566;2022-12-07T05:20:41;99840.03;;;-0.19;100.00
31681;BME280;18281;51.364;9.566;2022-12-07T05:23:07;99841.78;;;-0.20;100.00
31681;BME280;18281;51.364;9.566;2022-12-07T05:25:32;99841.81;;;-0.21;100.00
31681;BME280;18281;51.364;9.566;2022-12-07T05:27:58;99836.59;;;-0.18;100.00
31681;BME280;18281;51.364;9.566;2022-12-07T05:30:24;99838.31;;;-0.17;100.00
31681;BME280;18281;51.364;9.566;2022-12-07T05:32:49;99840.09;;;-0.22;100.00
31681;BME280;18281;51.364;9.566;2022-12-07T05:35:15;99838.31;;;-0.17;100.00
31681;BME280;18281;51.364;9.566;2022-12-07T05:37:41;99837.47;;;-0.18;100.00
31681;BME280;18281;51.364;9.566;2022-12-07T05:40:07;99829.69;;;-0.16;100.00
31681;BME280;18281;51.364;9.566;2022-12-07T05:42:32;99827.13;;;-0.16;100.00
31681;BME280;18281;51.364;9.566;2022-12-07T05:44:58;99828.94;;;-0.23;100.00
31681;BME280;18281;51.364;9.566;2022-12-07T05:47:23;99830.66;;;-0.22;100.00
31681;BME280;18281;51.364;9.566;2022-12-07T05:49:49;99829.75;;;-0.21;100.00
31681;BME280;18281;51.364;9.566;2022-12-07T05:52:14;99825.50;;;-0.22;100.00
31681;BME280;18281;51.364;9.566;2022-12-07T05:54:39;99830.53;;;-0.16;100.00
31681;BME280;18281;51.364;9.566;2022-12-07T05:57:05;99838.31;;;-0.17;100.00
31681;BME280;18281;51.364;9.566;2022-12-07T05:59:30;99825.38;;;-0.16;100.00
31681;BME280;18281;51.364;9.566;2022-12-07T06:02:04;99823.72;;;-0.20;100.00
31681;BME280;18281;51.364;9.566;2022-12-07T06:04:33;99821.13;;;-0.20;100.00
31681;BME280;18281;51.364;9.566;2022-12-07T06:06:59;99819.38;;;-0.16;100.00
31681;BME280;18281;51.364;9.566;2022-12-07T06:09:27;99826.25;;;-0.15;100.00
31681;BME280;18281;51.364;9.566;2022-12-07T06:11:53;99821.09;;;-0.17;100.00
31681;BME280;18281;51.364;9.566;2022-12-07T06:14:38;99812.44;;;-0.13;100.00
31681;BME280;18281;51.364;9.566;2022-12-07T06:17:04;99803.00;;;-0.14;100.00
31681;BME280;18281;51.364;9.566;2022-12-07T06:19:29;99804.75;;;-0.16;100.00
31681;BME280;18281;51.364;9.566;2022-12-07T06:21:56;99803.00;;;-0.14;100.00
31681;BME280;18281;51.364;9.566;2022-12-07T06:24:21;99807.34;;;-0.17;100.00
31681;BME280;18281;51.364;9.566;2022-12-07T06:26:47;99807.69;;;0.17;100.00
31681;BME280;18281;51.364;9.566;2022-12-07T06:29:13;99815.94;;;1.35;100.00
31681;BME280;18281;51.364;9.566;2022-12-07T06:31:38;99830.09;;;1.59;100.00
31681;BME280;18281;51.364;9.566;2022-12-07T06:34:07;99825.34;;;1.37;100.00
31681;BME280;18281;51.364;9.566;2022-12-07T06:36:34;99839.41;;;1.26;100.00
31681;BME280;18281;51.364;9.566;2022-12-07T06:38:59;99825.13;;;1.06;100.00
31681;BME280;18281;51.364;9.566;2022-12-07T06:41:24;99822.03;;;0.85;100.00
31681;BME280;18281;51.364;9.566;2022-12-07T06:43:50;99825.66;;;0.75;100.00
31681;BME280;18281;51.364;9.566;2022-12-07T06:46:16;99827.41;;;0.73;100.00
31681;BME280;18281;51.364;9.566;2022-12-07T06:48:42;99828.50;;;0.60;100.00
31681;BME280;18281;51.364;9.566;2022-12-07T06:51:09;99827.00;;;0.48;100.00
31681;BME280;18281;51.364;9.566;2022-12-07T06:53:34;99831.38;;;0.44;100.00
31681;BME280;18281;51.364;9.566;2022-12-07T06:56:00;99833.16;;;0.39;100.00
31681;BME280;18281;51.364;9.566;2022-12-07T06:58:26;99831.44;;;0.38;100.00
31681;BME280;18281;51.364;9.566;2022-12-07T07:00:51;99835.84;;;0.34;100.00
31681;BME280;18281;51.364;9.566;2022-12-07T07:03:17;99831.53;;;0.33;100.00
31681;BME280;18281;51.364;9.566;2022-12-07T07:05:44;99841.00;;;0.33;100.00
31681;BME280;18281;51.364;9.566;2022-12-07T07:08:10;99839.31;;;0.32;100.00
31681;BME280;18281;51.364;9.566;2022-12-07T07:10:35;99839.34;;;0.29;100.00
31681;BME280;18281;51.364;9.566;2022-12-07T07:13:01;99838.53;;;0.27;100.00
31681;BME280;18281;51.364;9.566;2022-12-07T07:15:27;99846.38;;;0.19;100.00
31681;BME280;18281;51.364;9.566;2022-12-07T07:17:52;99837.81;;;0.18;100.00
31681;BME280;18281;51.364;9.566;2022-12-07T07:20:18;99841.22;;;0.19;100.00
31681;BME280;18281;51.364;9.566;2022-12-07T07:22:43;99845.34;;;0.82;100.00
31681;BME280;18281;51.364;9.566;2022-12-07T07:25:09;99845.13;;;0.95;100.00
31681;BME280;18281;51.364;9.566;2022-12-07T07:27:34;99849.88;;;1.19;100.00
31681;BME280;18281;51.364;9.566;2022-12-07T07:29:59;99854.81;;;1.30;100.00
31681;BME280;18281;51.364;9.566;2022-12-07T07:32:25;99856.22;;;1.47;100.00
31681;BME280;18281;51.364;9.566;2022-12-07T07:34:50;99855.97;;;1.58;100.00
31681;BME280;18281;51.364;9.566;2022-12-07T07:37:16;99864.84;;;1.47;100.00
31681;BME280;18281;51.364;9.566;2022-12-07T07:39:41;99862.38;;;1.41;100.00
31681;BME280;18281;51.364;9.566;2022-12-07T07:42:07;99852.28;;;1.29;100.00
31681;BME280;18281;51.364;9.566;2022-12-07T07:44:33;99854.19;;;1.17;100.00
31681;BME280;18281;51.364;9.566;2022-12-07T07:46:59;99858.81;;;1.03;100.00
31681;BME280;18281;51.364;9.566;2022-12-07T07:49:25;99861.63;;;0.87;100.00
31681;BME280;18281;51.364;9.566;2022-12-07T07:51:51;99862.59;;;0.82;100.00
31681;BME280;18281;51.364;9.566;2022-12-07T07:54:16;99866.06;;;0.79;100.00
31681;BME280;18281;51.364;9.566;2022-12-07T07:56:41;99859.47;;;0.63;100.00
31681;BME280;18281;51.364;9.566;2022-12-07T07:59:07;99864.66;;;0.61;100.00
31681;BME280;18281;51.364;9.566;2022-12-07T08:01:33;99858.56;;;0.64;100.00
31681;BME280;18281;51.364;9.566;2022-12-07T08:03:58;99862.16;;;0.57;100.00
31681;BME280;18281;51.364;9.566;2022-12-07T08:06:24;99865.72;;;0.49;100.00
31681;BME280;18281;51.364;9.566;2022-12-07T08:08:49;99858.78;;;0.51;100.00
31681;BME280;18281;51.364;9.566;2022-12-07T08:11:15;99863.06;;;0.52;100.00
31681;BME280;18281;51.364;9.566;2022-12-07T08:13:40;99858.81;;;0.50;100.00
31681;BME280;18281;51.364;9.566;2022-12-07T08:16:08;99862.22;;;0.53;100.00
31681;BME280;18281;51.364;9.566;2022-12-07T08:18:35;99851.88;;;0.53;100.00
31681;BME280;18281;51.364;9.566;2022-12-07T08:21:02;99856.19;;;0.51;100.00
31681;BME280;18281;51.364;9.566;2022-12-07T08:23:28;99855.38;;;0.49;100.00
31681;BME280;18281;51.364;9.566;2022-12-07T08:25:53;99855.41;;;0.48;100.00
31681;BME280;18281;51.364;9.566;2022-12-07T08:28:19;99863.13;;;0.49;100.00
31681;BME280;18281;51.364;9.566;2022-12-07T08:30:44;99865.72;;;0.49;100.00
31681;BME280;18281;51.364;9.566;2022-12-07T08:33:10;99865.72;;;0.49;100.00
31681;BME280;18281;51.364;9.566;2022-12-07T08:35:35;99870.91;;;0.46;100.00
31681;BME280;18281;51.364;9.566;2022-12-07T08:38:01;99873.53;;;0.45;100.00
31681;BME280;18281;51.364;9.566;2022-12-07T08:40:28;99864.84;;;0.49;100.00
31681;BME280;18281;51.364;9.566;2022-12-07T08:42:53;99880.28;;;0.53;100.00
31681;BME280;18281;51.364;9.566;2022-12-07T08:45:20;99876.09;;;0.46;100.00
31681;BME280;18281;51.364;9.566;2022-12-07T08:47:53;99872.63;;;0.47;100.00
31681;BME280;18281;51.364;9.566;2022-12-07T08:50:20;99873.41;;;0.52;100.00
31681;BME280;18281;51.364;9.566;2022-12-07T08:52:55;99869.94;;;0.55;100.00
31681;BME280;18281;51.364;9.566;2022-12-07T08:55:23;99866.34;;;0.62;100.00
31681;BME280;18281;51.364;9.566;2022-12-07T08:57:49;99871.50;;;0.64;100.00
31681;BME280;18281;51.364;9.566;2022-12-07T09:00:15;99868.91;;;0.64;100.00
31681;BME280;18281;51.364;9.566;2022-12-07T09:02:43;99866.25;;;0.68;100.00
31681;BME280;18281;51.364;9.566;2022-12-07T09:05:09;99868.72;;;0.76;100.00
31681;BME280;18281;51.364;9.566;2022-12-07T09:07:35;99865.34;;;0.71;100.00
31681;BME280;18281;51.364;9.566;2022-12-07T09:10:03;99862.81;;;0.69;100.00
31681;BME280;18281;51.364;9.566;2022-12-07T09:12:28;99867.13;;;0.67;100.00
31681;BME280;18281;51.364;9.566;2022-12-07T09:14:54;99859.31;;;0.72;100.00
31681;BME280;18281;51.364;9.566;2022-12-07T09:17:19;99866.19;;;0.71;100.00
31681;BME280;18281;51.364;9.566;2022-12-07T09:19:44;99862.75;;;0.73;100.00
31681;BME280;18281;51.364;9.566;2022-12-07T09:22:10;99861.00;;;0.75;100.00
31681;BME280;18281;51.364;9.566;2022-12-07T09:24:35;99864.38;;;0.78;100.00
31681;BME280;18281;51.364;9.566;2022-12-07T09:27:01;99860.06;;;0.77;100.00
31681;BME280;18281;51.364;9.566;2022-12-07T09:29:26;99867.06;;;0.72;100.00
31681;BME280;18281;51.364;9.566;2022-12-07T09:31:52;99868.66;;;0.79;100.00
31681;BME280;18281;51.364;9.566;2022-12-07T09:34:17;99871.38;;;0.71;100.00
31681;BME280;18281;51.364;9.566;2022-12-07T09:36:43;99871.34;;;0.75;100.00
31681;BME280;18281;51.364;9.566;2022-12-07T09:39:09;99874.75;;;0.75;100.00
31681;BME280;18281;51.364;9.566;2022-12-07T09:41:38;99877.41;;;0.70;100.00
31681;BME280;18281;51.364;9.566;2022-12-07T09:44:09;99873.75;;;0.82;100.00
31681;BME280;18281;51.364;9.566;2022-12-07T09:46:36;99875.69;;;0.71;100.00
31681;BME280;18281;51.364;9.566;2022-12-07T09:49:03;99872.09;;;0.80;100.00
31681;BME280;18281;51.364;9.566;2022-12-07T09:51:29;99870.41;;;0.77;100.00
31681;BME280;18281;51.364;9.566;2022-12-07T09:53:56;99866.19;;;0.71;100.00
31681;BME280;18281;51.364;9.566;2022-12-07T09:56:23;99866.19;;;0.71;100.00
31681;BME280;18281;51.364;9.566;2022-12-07T09:58:49;99863.59;;;0.73;100.00
31681;BME280;18281;51.364;9.566;2022-12-07T10:01:18;99861.13;;;0.67;100.00
31681;BME280;18281;51.364;9.566;2022-12-07T10:03:55;99868.59;;;0.82;100.00
31681;BME280;18281;51.364;9.566;2022-12-07T10:06:23;99861.00;;;0.75;100.00
31681;BME280;18281;51.364;9.566;2022-12-07T10:08:49;99861.63;;;0.87;100.00
31681;BME280;18281;51.364;9.566;2022-12-07T10:11:15;99865.06;;;0.86;100.00
31681;BME280;18281;51.364;9.566;2022-12-07T10:13:49;99860.69;;;0.92;100.00
31681;BME280;18281;51.364;9.566;2022-12-07T10:18:50;99852.84;;;0.96;100.00
31681;BME280;18281;51.364;9.566;2022-12-07T10:21:18;99853.66;;;1.00;100.00
31681;BME280;18281;51.364;9.566;2022-12-07T10:26:50;99848.31;;;1.09;100.00
31681;BME280;18281;51.364;9.566;2022-12-07T10:31:53;99838.03;;;1.08;100.00
31681;BME280;18281;51.364;9.566;2022-12-07T10:36:52;99842.97;;;1.18;100.00
31681;BME280;18281;51.364;9.566;2022-12-07T10:39:22;99835.19;;;1.22;100.00
31681;BME280;18281;51.364;9.566;2022-12-07T10:41:59;99827.31;;;1.26;100.00
31681;BME280;18281;51.364;9.566;2022-12-07T10:44:27;99834.28;;;1.23;100.00
31681;BME280;18281;51.364;9.566;2022-12-07T10:55:25;99829.16;;;1.19;100.00
31681;BME280;18281;51.364;9.566;2022-12-07T10:58:09;99817.03;;;1.23;100.00
31681;BME280;18281;51.364;9.566;2022-12-07T11:01:29;99822.44;;;2.30;100.00
31681;BME280;18281;51.364;9.566;2022-12-07T11:07:34;99834.56;;;2.64;100.00
31681;BME280;18281;51.364;9.566;2022-12-07T11:10:14;99826.66;;;2.34;100.00
31681;BME280;18281;51.364;9.566;2022-12-07T11:24:30;99815.81;;;1.41;100.00
31681;BME280;18281;51.364;9.566;2022-12-07T11:27:06;99811.44;;;1.45;100.00
31681;BME280;18281;51.364;9.566;2022-12-07T11:40:36;99799.06;;;2.33;100.00
31681;BME280;18281;51.364;9.566;2022-12-07T11:43:18;99789.69;;;2.29;100.00
31681;BME280;18281;51.364;9.566;2022-12-07T11:45:54;99782.78;;;2.28;100.00
31681;BME280;18281;51.364;9.566;2022-12-07T11:48:38;99785.69;;;2.14;100.00
31681;BME280;18281;51.364;9.566;2022-12-07T11:51:06;99786.00;;;2.01;100.00
31681;BME280;18281;51.364;9.566;2022-12-07T11:53:40;99776.34;;;2.08;100.00
31681;BME280;18281;51.364;9.566;2022-12-07T11:59:00;99768.56;;;2.08;100.00
31681;BME280;18281;51.364;9.566;2022-12-07T12:01:31;99771.16;;;2.08;100.00
31681;BME280;18281;51.364;9.566;2022-12-07T12:06:30;99763.44;;;2.07;100.00
31681;BME280;18281;51.364;9.566;2022-12-07T12:09:00;99764.38;;;2.04;100.00
31681;BME280;18281;51.364;9.566;2022-12-07T12:14:17;99763.41;;;2.08;100.00
31681;BME280;18281;51.364;9.566;2022-12-07T12:22:44;99754.44;;;1.85;100.00
31681;BME280;18281;51.364;9.566;2022-12-07T12:25:24;99759.75;;;1.81;100.00
31681;BME280;18281;51.364;9.566;2022-12-07T12:27:51;99753.69;;;1.82;100.00
31681;BME280;18281;51.364;9.566;2022-12-07T12:30:38;99749.00;;;1.96;100.00
31681;BME280;18281;51.364;9.566;2022-12-07T12:33:27;99749.09;;;1.93;100.00
31681;BME280;18281;51.364;9.566;2022-12-07T12:49:41;99737.03;;;1.92;100.00
31681;BME280;18281;51.364;9.566;2022-12-07T12:54:59;99733.16;;;1.74;100.00
31681;BME280;18281;51.364;9.566;2022-12-07T12:57:31;99732.28;;;1.75;100.00
31681;BME280;18281;51.364;9.566;2022-12-07T12:59:58;99730.47;;;1.77;100.00
31681;BME280;18281;51.364;9.566;2022-12-07T13:02:38;99735.78;;;1.73;100.00
31681;BME280;18281;51.364;9.566;2022-12-07T13:18:36;99732.97;;;1.82;100.00
31681;BME280;18281;51.364;9.566;2022-12-07T13:23:59;99727.38;;;1.99;100.00
31681;BME280;18281;51.364;9.566;2022-12-07T13:26:42;99732.31;;;2.08;100.00
31681;BME280;18281;51.364;9.566;2022-12-07T13:29:15;99738.97;;;2.18;100.00
31681;BME280;18281;51.364;9.566;2022-12-07T13:31:48;99727.69;;;2.21;100.00
31681;BME280;18281;51.364;9.566;2022-12-07T13:37:11;99723.25;;;2.26;100.00
31681;BME280;18281;51.364;9.566;2022-12-07T13:39:56;99729.28;;;2.27;100.00
31681;BME280;18281;51.364;9.566;2022-12-07T13:42:26;99724.00;;;2.30;100.00
31681;BME280;18281;51.364;9.566;2022-12-07T13:44:52;99726.50;;;2.34;100.00
31681;BME280;18281;51.364;9.566;2022-12-07T13:47:41;99725.63;;;2.34;100.00
31681;BME280;18281;51.364;9.566;2022-12-07T13:50:27;99724.75;;;2.35;100.00
31681;BME280;18281;51.364;9.566;2022-12-07T13:52:58;99724.69;;;2.36;100.00
31681;BME280;18281;51.364;9.566;2022-12-07T13:55:24;99722.94;;;2.38;100.00
31681;BME280;18281;51.364;9.566;2022-12-07T13:57:51;99720.72;;;2.23;100.00
31681;BME280;18281;51.364;9.566;2022-12-07T14:00:23;99723.06;;;1.99;100.00
31681;BME280;18281;51.364;9.566;2022-12-07T14:02:59;99727.50;;;1.94;100.00
31681;BME280;18281;51.364;9.566;2022-12-07T14:05:27;99727.47;;;1.96;100.00
31681;BME280;18281;51.364;9.566;2022-12-07T14:10:38;99720.00;;;1.83;100.00
31681;BME280;18281;51.364;9.566;2022-12-07T14:13:31;99719.06;;;1.86;100.00
31681;BME280;18281;51.364;9.566;2022-12-07T14:16:20;99716.50;;;1.84;100.00
31681;BME280;18281;51.364;9.566;2022-12-07T14:18:48;99720.97;;;1.79;100.00
31681;BME280;18281;51.364;9.566;2022-12-07T14:21:14;99710.78;;;1.71;100.00
31681;BME280;18281;51.364;9.566;2022-12-07T14:23:40;99715.78;;;1.78;100.00
31681;BME280;18281;51.364;9.566;2022-12-07T14:26:13;99710.75;;;1.73;100.00
31681;BME280;18281;51.364;9.566;2022-12-07T14:28:40;99702.78;;;1.81;100.00
31681;BME280;18281;51.364;9.566;2022-12-07T14:31:18;99708.91;;;1.78;100.00
31681;BME280;18281;51.364;9.566;2022-12-07T14:33:46;99709.13;;;1.69;100.00
31681;BME280;18281;51.364;9.566;2022-12-07T14:36:13;99704.91;;;1.65;100.00
31681;BME280;18281;51.364;9.566;2022-12-07T14:38:39;99698.75;;;1.69;100.00
31681;BME280;18281;51.364;9.566;2022-12-07T14:41:06;99699.69;;;1.66;100.00
31681;BME280;18281;51.364;9.566;2022-12-07T14:43:54;99700.50;;;1.68;100.00
31681;BME280;18281;51.364;9.566;2022-12-07T14:46:19;99691.03;;;1.67;100.00
31681;BME280;18281;51.364;9.566;2022-12-07T14:48:45;99689.34;;;1.66;100.00
31681;BME280;18281;51.364;9.566;2022-12-07T14:51:12;99697.13;;;1.65;100.00
31681;BME280;18281;51.364;9.566;2022-12-07T14:53:44;99692.97;;;1.58;100.00
31681;BME280;18281;51.364;9.566;2022-12-07T14:56:11;99699.06;;;1.57;100.00
31681;BME280;18281;51.364;9.566;2022-12-07T14:58:37;99691.25;;;1.58;100.00
31681;BME280;18281;51.364;9.566;2022-12-07T15:01:02;99684.38;;;1.57;100.00
31681;BME280;18281;51.364;9.566;2022-12-07T15:03:28;99689.59;;;1.56;100.00
31681;BME280;18281;51.364;9.566;2022-12-07T15:05:54;99689.63;;;1.54;100.00
31681;BME280;18281;51.364;9.566;2022-12-07T15:08:20;99693.13;;;1.51;100.00
31681;BME280;18281;51.364;9.566;2022-12-07T15:10:45;99690.69;;;1.45;100.00